Terminal Aerodrome Forecast
Issued by NWS

Home | Current Version | Previous Version | Text Only | Print | Product List | Glossary On
Versions: 1 2 3 4 5 6 7 8 9 10 11 12
000
FTUS45 KTFX 230500
TAFHLN
TAF
KHLN 230520Z 2306/2406 19008KT P6SM SCT070 BKN120
     FM230700 VRB06KT P6SM SCT050 BKN090
      TEMPO 2308/2311 VRB15G40KT 5SM -TSRA BKN040CB
     FM231500 VRB06KT P6SM SCT150
     FM240000 VRB06KT P6SM SCT090 BKN180 PROB30 2400/2406 VRB20G40KT
      5SM -TSRA BKN050CB=

USA.gov is the U.S. government's official web portal to all federal, state and local government web resources and services.